Time;durP1;ratioP1;P1;durP2;ratioP2;P2;SDS_P1;SDS_P2;PMS_P1;PMS_P2;Temp;Humidity;BMP_temperature;BMP_pressure;BME280_temperature;BME280_humidity;BME280_pressure;Samples;Min_cycle;Max_cycle;Signal;HPM_P1;HPM_P2
2022/04/05 00:01:15;;;;;;;4.22;3.25;;;;;;;5.52;100.00;99189.59;6024994;29;20141;-90
2022/04/05 00:04:17;;;;;;;3.25;2.50;;;;;;;5.57;100.00;99187.47;6040698;29;20399;-91
2022/04/05 00:07:19;;;;;;;3.08;2.53;;;;;;;5.60;100.00;99192.38;6036857;29;20816;-89
2022/04/05 00:10:21;;;;;;;5.20;2.25;;;;;;;5.56;100.00;99177.31;6039924;29;20519;-89
2022/04/05 00:13:23;;;;;;;5.45;2.33;;;;;;;5.51;100.00;99180.25;6045958;29;20146;-88
2022/04/05 00:16:27;;;;;;;2.17;1.90;;;;;;;5.54;100.00;99167.19;6031498;29;20048;-88
2022/04/05 00:19:29;;;;;;;2.38;2.17;;;;;;;5.53;100.00;99167.31;6035678;29;20062;-89
2022/04/05 00:22:31;;;;;;;2.83;2.03;;;;;;;5.49;100.00;99176.19;6040006;29;20121;-87
2022/04/05 00:25:33;;;;;;;4.03;2.40;;;;;;;5.52;100.00;99171.63;6038120;29;20049;-88
2022/04/05 00:28:35;;;;;;;3.90;2.47;;;;;;;5.52;100.00;99175.97;6031386;29;20050;-89
2022/04/05 00:31:37;;;;;;;2.88;2.08;;;;;;;5.59;100.00;99177.09;6042868;29;20056;-90
2022/04/05 00:34:40;;;;;;;3.90;2.20;;;;;;;5.62;100.00;99192.25;6047809;29;20775;-89
2022/04/05 00:37:42;;;;;;;3.10;1.92;;;;;;;5.53;100.00;99192.97;6036307;29;20069;-87
2022/04/05 00:40:44;;;;;;;3.00;2.25;;;;;;;5.54;100.00;99176.63;6032045;29;20407;-88
2022/04/05 00:43:46;;;;;;;2.65;2.15;;;;;;;5.53;100.00;99198.13;6039849;29;20505;-88
2022/04/05 00:46:49;;;;;;;3.55;2.00;;;;;;;5.51;100.00;99202.53;6041554;29;20132;-88
2022/04/05 00:49:53;;;;;;;2.00;1.80;;;;;;;5.45;100.00;99193.59;6041852;29;20070;-87
2022/04/05 00:52:55;;;;;;;2.15;1.50;;;;;;;5.38;100.00;99185.56;6032045;29;20052;-88
2022/04/05 00:56:02;;;;;;;2.50;1.35;;;;;;;5.29;100.00;99178.59;6043278;29;20503;-90
2022/04/05 00:59:07;;;;;;;1.88;0.75;;;;;;;5.18;100.00;99163.22;6065673;29;20063;-88
2022/04/05 01:02:12;;;;;;;1.60;1.02;;;;;;;5.13;100.00;99162.78;6037836;29;20099;-87
2022/04/05 01:05:17;;;;;;;1.17;1.00;;;;;;;5.05;100.00;99177.94;6036489;29;20065;-88
2022/04/05 01:08:22;;;;;;;1.40;1.00;;;;;;;5.09;100.00;99172.47;6040491;29;20071;-90
2022/04/05 01:11:25;;;;;;;1.50;1.40;;;;;;;5.11;100.00;99177.47;6034929;29;20046;-91
2022/04/05 01:14:27;;;;;;;2.35;1.40;;;;;;;5.12;100.00;99192.75;6020082;29;20053;-90
2022/04/05 01:17:29;;;;;;;1.90;1.45;;;;;;;5.13;100.00;99191.78;6036772;29;20499;-91
2022/04/05 01:20:43;;;;;;;2.00;1.67;;;;;;;5.18;100.00;99183.75;6037763;29;20045;-88
2022/04/05 01:24:16;;;;;;;2.17;1.50;;;;;;;5.18;100.00;99181.19;6038131;29;20224;-89
2022/04/05 01:27:19;;;;;;;2.05;1.10;;;;;;;5.08;100.00;99177.72;6032637;29;20048;-89
2022/04/05 01:30:21;;;;;;;1.70;1.17;;;;;;;4.97;100.00;99181.91;6039894;29;20084;-89
2022/04/05 01:33:23;;;;;;;1.10;1.00;;;;;;;4.94;100.00;99174.47;6040465;29;20082;-89
2022/04/05 01:36:25;;;;;;;1.73;1.10;;;;;;;5.02;100.00;99189.25;6037024;29;20049;-90
2022/04/05 01:39:30;;;;;;;1.50;0.90;;;;;;;5.02;100.00;99179.00;6011991;29;20617;-89
2022/04/05 01:42:33;;;;;;;1.85;0.98;;;;;;;4.99;100.00;99168.97;6043164;29;20506;-90
2022/04/05 01:45:36;;;;;;;1.48;1.02;;;;;;;4.92;100.00;99168.63;6043193;29;20052;-89
2022/04/05 01:48:39;;;;;;;1.35;1.20;;;;;;;4.97;100.00;99169.09;6036155;29;20073;-90
2022/04/05 01:51:44;;;;;;;1.00;0.82;;;;;;;4.99;100.00;99168.97;6040412;29;20052;-91
2022/04/05 01:54:46;;;;;;;1.63;1.13;;;;;;;4.94;100.00;99169.34;6044395;29;20096;-89
2022/04/05 01:57:48;;;;;;;1.52;1.13;;;;;;;4.99;100.00;99171.53;6044485;29;20045;-90
2022/04/05 02:00:50;;;;;;;1.10;1.00;;;;;;;5.03;100.00;99175.50;6040105;29;20049;-90
2022/04/05 02:03:52;;;;;;;1.00;0.90;;;;;;;5.13;100.00;99190.97;6037439;29;20057;-89
2022/04/05 02:06:54;;;;;;;1.30;1.20;;;;;;;5.11;100.00;99173.13;6038653;29;20053;-90
2022/04/05 02:09:56;;;;;;;1.15;1.05;;;;;;;5.11;100.00;99193.66;6037074;29;20053;-90
2022/04/05 02:12:59;;;;;;;2.80;1.48;;;;;;;5.07;100.00;99174.34;6045982;29;20049;-90
2022/04/05 02:16:07;;;;;;;1.40;1.17;;;;;;;5.11;100.00;99185.16;6031984;29;20163;-90
2022/04/05 02:19:10;;;;;;;2.33;1.30;;;;;;;5.12;100.00;99217.59;6003455;29;20382;-91
2022/04/05 02:22:16;;;;;;;1.90;1.13;;;;;;;5.12;100.00;99187.59;6028919;29;20111;-90
2022/04/05 02:25:19;;;;;;;2.10;1.50;;;;;;;5.21;100.00;99180.94;6035395;29;20049;-90
2022/04/05 02:28:21;;;;;;;1.63;1.15;;;;;;;5.20;100.00;99197.28;6028200;29;20049;-90
2022/04/05 02:31:28;;;;;;;1.20;1.10;;;;;;;5.16;100.00;99185.59;6033266;29;20128;-90
2022/04/05 02:34:31;;;;;;;1.80;1.30;;;;;;;5.14;100.00;99202.88;6034921;29;20474;-91
2022/04/05 02:37:36;;;;;;;2.05;1.50;;;;;;;5.18;100.00;99212.78;6030519;29;20056;-91
2022/04/05 02:40:40;;;;;;;3.20;1.20;;;;;;;5.32;100.00;99204.00;6036398;29;20503;-90
2022/04/05 02:43:45;;;;;;;1.52;1.17;;;;;;;5.32;100.00;99196.31;6017329;29;20635;-90
2022/04/05 02:46:47;;;;;;;1.25;1.10;;;;;;;5.28;100.00;99212.06;6039869;29;20495;-90
2022/04/05 02:49:50;;;;;;;2.70;1.40;;;;;;;5.23;100.00;99214.97;6033956;29;20049;-89
2022/04/05 02:52:57;;;;;;;1.65;1.00;;;;;;;5.23;100.00;99209.84;6040062;29;20617;-90
2022/04/05 02:55:59;;;;;;;1.80;1.27;;;;;;;5.21;100.00;99221.97;6042033;29;20049;-88
2022/04/05 02:59:01;;;;;;;2.35;1.23;;;;;;;5.26;100.00;99204.47;6035025;29;20053;-89
2022/04/05 03:02:04;;;;;;;3.15;1.40;;;;;;;5.23;100.00;99214.97;6038743;29;20674;-87
2022/04/05 03:05:08;;;;;;;1.63;1.17;;;;;;;5.32;100.00;99227.09;6032364;29;20572;-85
2022/04/05 03:08:11;;;;;;;1.73;1.17;;;;;;;5.30;100.00;99233.28;6042583;29;20045;-85
2022/04/05 03:11:15;;;;;;;1.73;1.35;;;;;;;5.36;100.00;99225.91;6039011;29;20580;-87
2022/04/05 03:14:22;;;;;;;2.13;1.38;;;;;;;5.34;100.00;99232.09;6033068;29;20049;-87
2022/04/05 03:17:25;;;;;;;2.17;1.40;;;;;;;5.31;100.00;99227.22;6028998;29;20141;-86
2022/04/05 03:20:28;;;;;;;3.67;1.50;;;;;;;5.33;100.00;99233.84;6023230;29;20100;-86
2022/04/05 03:23:31;;;;;;;2.20;1.58;;;;;;;5.37;100.00;99244.72;6041012;29;20155;-85
2022/04/05 03:26:32;;;;;;;3.75;1.85;;;;;;;5.39;100.00;99238.53;6037327;29;20720;-86
2022/04/05 03:29:35;;;;;;;4.07;1.63;;;;;;;5.46;100.00;99238.03;6035872;29;20049;-85
2022/04/05 03:32:37;;;;;;;3.28;1.67;;;;;;;5.41;100.00;99240.94;6023784;29;20135;-86
2022/04/05 03:35:39;;;;;;;3.47;1.83;;;;;;;5.41;100.00;99253.78;6038067;29;20044;-86
2022/04/05 03:38:41;;;;;;;3.72;1.80;;;;;;;5.47;100.00;99255.06;6016378;29;20041;-85
2022/04/05 03:41:47;;;;;;;5.00;2.30;;;;;;;5.47;100.00;99252.50;6030354;29;20461;-86
2022/04/05 03:44:49;;;;;;;3.97;2.08;;;;;;;5.50;100.00;99244.56;6028642;29;20065;-86
2022/04/05 03:47:52;;;;;;;5.78;2.30;;;;;;;5.43;100.00;99241.66;6029539;29;20490;-87
2022/04/05 03:50:54;;;;;;;5.03;2.20;;;;;;;5.48;100.00;99246.41;6029676;29;20503;-88
2022/04/05 03:53:57;;;;;;;4.72;2.50;;;;;;;5.51;100.00;99248.75;6030529;29;20670;-88
2022/04/05 03:57:03;;;;;;;3.45;2.33;;;;;;;5.48;100.00;99257.50;6039668;29;20060;-88
2022/04/05 04:00:07;;;;;;;3.83;2.47;;;;;;;5.46;100.00;99268.81;6044162;29;20053;-85
2022/04/05 04:03:15;;;;;;;3.58;2.40;;;;;;;5.44;100.00;99275.81;6042354;29;20102;-85
2022/04/05 04:06:19;;;;;;;5.72;2.55;;;;;;;5.40;100.00;99265.81;6028450;29;20042;-85
2022/04/05 04:09:23;;;;;;;5.63;2.63;;;;;;;5.38;100.00;99267.66;6036753;29;20124;-86
2022/04/05 04:12:26;;;;;;;4.43;2.50;;;;;;;5.40;100.00;99268.38;6024250;29;20113;-87
2022/04/05 04:15:28;;;;;;;6.03;2.83;;;;;;;5.42;100.00;99264.88;6044237;29;20054;-87
2022/04/05 04:18:32;;;;;;;7.68;2.92;;;;;;;5.37;100.00;99278.06;6027214;29;20089;-88
2022/04/05 04:21:35;;;;;;;6.65;3.10;;;;;;;5.39;100.00;99266.75;6016557;29;20057;-88
2022/04/05 04:24:38;;;;;;;6.50;3.22;;;;;;;5.42;100.00;99272.59;6028454;29;20198;-89
2022/04/05 04:27:40;;;;;;;6.72;3.22;;;;;;;5.45;100.00;99280.84;6020664;29;20046;-89
2022/04/05 04:30:42;;;;;;;6.30;3.03;;;;;;;5.46;100.00;99279.09;6031331;29;20045;-88
2022/04/05 04:33:45;;;;;;;3.90;2.70;;;;;;;5.56;100.00;99293.63;6031277;29;20127;-88
2022/04/05 04:36:47;;;;;;;4.45;2.80;;;;;;;5.53;100.00;99293.88;6030642;29;20072;-89
2022/04/05 04:39:50;;;;;;;5.65;2.70;;;;;;;5.59;100.00;99277.22;6027779;29;20495;-89
2022/04/05 04:42:52;;;;;;;6.03;3.30;;;;;;;5.55;100.00;99288.63;6019952;29;20136;-89
2022/04/05 04:45:54;;;;;;;6.93;3.10;;;;;;;5.58;100.00;99284.06;6024315;29;20049;-89
2022/04/05 04:48:56;;;;;;;7.95;2.88;;;;;;;5.60;100.00;99296.78;6004453;29;20645;-89
2022/04/05 04:51:59;;;;;;;6.47;3.25;;;;;;;5.58;100.00;99302.03;6020816;29;20807;-89
2022/04/05 04:55:01;;;;;;;5.10;2.28;;;;;;;5.55;100.00;99301.47;6025379;29;20100;-89
2022/04/05 04:58:04;;;;;;;8.25;2.92;;;;;;;5.45;100.00;99319.34;6027150;29;20116;-89
2022/04/05 05:01:05;;;;;;;7.97;2.97;;;;;;;5.53;100.00;99316.16;6036290;29;20045;-89
2022/04/05 05:04:07;;;;;;;5.03;2.45;;;;;;;5.53;100.00;99324.69;6045270;29;20124;-89
2022/04/05 05:07:09;;;;;;;5.75;2.80;;;;;;;5.58;100.00;99321.75;6040578;29;20044;-89
2022/04/05 05:10:14;;;;;;;4.35;2.45;;;;;;;5.50;100.00;99327.50;6036958;29;20048;-89
2022/04/05 05:13:17;;;;;;;4.28;2.47;;;;;;;5.41;100.00;99320.50;6045497;29;20475;-89
2022/04/05 05:16:20;;;;;;;7.75;2.97;;;;;;;5.42;100.00;99331.59;6038259;29;20056;-89
2022/04/05 05:19:23;;;;;;;5.85;2.97;;;;;;;5.46;100.00;99336.34;6029584;29;20049;-89
2022/04/05 05:22:24;;;;;;;9.40;3.92;;;;;;;5.45;100.00;99350.13;6037631;29;20041;-89
2022/04/05 05:25:26;;;;;;;10.27;3.22;;;;;;;5.51;100.00;99344.50;6045062;29;20072;-89
2022/04/05 05:28:28;;;;;;;6.57;2.50;;;;;;;5.57;100.00;99353.50;6040392;29;20057;-89
2022/04/05 05:31:30;;;;;;;2.92;2.25;;;;;;;5.52;100.00;99376.97;6027498;29;20045;-89
2022/04/05 05:34:32;;;;;;;6.30;3.03;;;;;;;5.59;100.00;99375.56;6028656;29;20052;-90
2022/04/05 05:37:34;;;;;;;9.63;2.63;;;;;;;5.61;100.00;99372.84;6035457;29;20049;-89
2022/04/05 05:40:36;;;;;;;5.65;2.63;;;;;;;5.63;100.00;99373.56;6043809;29;20045;-89
2022/04/05 05:43:38;;;;;;;9.27;2.40;;;;;;;5.69;100.00;99383.38;6043114;29;20049;-90
2022/04/05 05:46:40;;;;;;;6.20;2.15;;;;;;;5.66;100.00;99382.78;6035969;29;20278;-90
2022/04/05 05:49:42;;;;;;;5.75;2.00;;;;;;;5.63;100.00;99386.41;6033899;29;20060;-89
2022/04/05 05:52:46;;;;;;;4.80;2.45;;;;;;;5.71;100.00;99393.50;6045603;29;20384;-89
2022/04/05 05:55:48;;;;;;;5.40;2.00;;;;;;;5.67;100.00;99400.66;6027847;29;20244;-90
2022/04/05 05:58:51;;;;;;;3.92;2.50;;;;;;;5.75;100.00;99403.44;6048220;29;20044;-90
2022/04/05 06:01:55;;;;;;;5.15;2.40;;;;;;;5.70;100.00;99415.81;6041713;29;20096;-90
2022/04/05 06:04:56;;;;;;;8.20;2.80;;;;;;;5.69;100.00;99419.31;6024074;29;20053;-90
2022/04/05 06:07:59;;;;;;;8.85;2.50;;;;;;;5.68;100.00;99427.13;6044757;29;20111;-89
2022/04/05 06:11:01;;;;;;;5.57;2.15;;;;;;;5.69;100.00;99418.47;6039269;29;20087;-90
2022/04/05 06:14:03;;;;;;;4.10;1.98;;;;;;;5.71;100.00;99424.31;6043108;29;20193;-90
2022/04/05 06:17:06;;;;;;;7.28;2.13;;;;;;;5.74;100.00;99427.47;6037900;29;20121;-90
2022/04/05 06:20:10;;;;;;;7.72;2.40;;;;;;;5.67;100.00;99420.38;6040098;29;20056;-89
2022/04/05 06:23:12;;;;;;;9.43;2.13;;;;;;;5.67;100.00;99428.88;6034282;29;20068;-90
2022/04/05 06:26:14;;;;;;;7.13;1.80;;;;;;;5.66;100.00;99432.38;6040022;29;20049;-89
2022/04/05 06:29:17;;;;;;;5.65;1.90;;;;;;;5.69;100.00;99441.59;6035618;29;20037;-90
2022/04/05 06:32:19;;;;;;;6.80;2.20;;;;;;;5.70;100.00;99441.47;6018578;29;20044;-90
2022/04/05 06:35:21;;;;;;;5.28;1.80;;;;;;;5.76;100.00;99441.03;6042922;29;20041;-90
2022/04/05 06:38:24;;;;;;;9.90;1.92;;;;;;;5.83;100.00;99437.03;6033902;29;20483;-90
2022/04/05 06:41:26;;;;;;;2.75;1.73;;;;;;;5.82;100.00;99447.44;6035463;29;20049;-90
2022/04/05 06:44:28;;;;;;;9.57;1.63;;;;;;;5.87;100.00;99450.47;6036482;29;20060;-89
2022/04/05 06:47:30;;;;;;;3.78;2.05;;;;;;;5.92;100.00;99456.06;6041998;29;20052;-89
2022/04/05 06:50:33;;;;;;;2.70;1.30;;;;;;;6.02;100.00;99462.16;6039865;29;20495;-89
2022/04/05 06:53:36;;;;;;;7.53;1.70;;;;;;;6.01;100.00;99457.97;6026387;29;20136;-90
2022/04/05 06:56:38;;;;;;;4.57;1.50;;;;;;;5.95;100.00;99455.03;6016617;29;20049;-90
2022/04/05 06:59:39;;;;;;;8.45;1.95;;;;;;;6.10;100.00;99459.00;6040043;29;20053;-89
2022/04/05 07:02:42;;;;;;;6.05;1.70;;;;;;;6.04;100.00;99452.59;6034638;29;20072;-90
2022/04/05 07:05:44;;;;;;;12.77;2.13;;;;;;;5.90;100.00;99450.22;6036017;29;20060;-89
2022/04/05 07:08:47;;;;;;;10.30;2.17;;;;;;;5.89;100.00;99452.91;6040167;29;20096;-89
2022/04/05 07:11:49;;;;;;;5.10;1.67;;;;;;;5.92;100.00;99444.97;6037386;29;20787;-89
2022/04/05 07:14:52;;;;;;;6.50;1.70;;;;;;;6.02;100.00;99443.38;6043527;29;20048;-90
2022/04/05 07:17:54;;;;;;;4.45;1.80;;;;;;;6.16;100.00;99439.69;6036894;29;20052;-90
2022/04/05 07:21:06;;;;;;;5.78;1.83;;;;;;;6.27;100.00;99446.59;6031526;29;20052;-90
2022/04/05 07:24:08;;;;;;;5.00;2.20;;;;;;;6.53;100.00;99447.09;6031990;29;20045;-90
2022/04/05 07:27:12;;;;;;;7.85;2.00;;;;;;;6.54;100.00;99449.56;6029261;29;20052;-90
2022/04/05 07:30:14;;;;;;;4.78;1.70;;;;;;;6.70;100.00;99449.13;6037016;29;20096;-90
2022/04/05 07:33:17;;;;;;;5.10;1.60;;;;;;;6.69;100.00;99461.19;6030230;29;20494;-90
2022/04/05 07:36:20;;;;;;;4.20;1.67;;;;;;;6.60;100.00;99448.25;6025594;29;20149;-89
2022/04/05 07:39:23;;;;;;;6.60;1.60;;;;;;;6.50;100.00;99458.44;6033786;29;20411;-89
2022/04/05 07:42:25;;;;;;;6.13;1.50;;;;;;;6.49;100.00;99453.44;6034819;29;20059;-89
2022/04/05 07:45:27;;;;;;;4.05;1.88;;;;;;;6.43;100.00;99458.13;6033602;29;20041;-89
2022/04/05 07:48:30;;;;;;;7.68;1.70;;;;;;;6.41;100.00;99459.16;6037890;29;20041;-89
2022/04/05 07:51:32;;;;;;;4.18;2.05;;;;;;;6.48;100.00;99447.44;6022480;29;20329;-89
2022/04/05 07:54:34;;;;;;;3.50;1.70;;;;;;;6.54;100.00;99451.31;6026883;29;20766;-89
2022/04/05 07:57:40;;;;;;;4.38;2.10;;;;;;;6.49;100.00;99459.38;6026585;29;20049;-89
2022/04/05 08:00:43;;;;;;;7.95;1.80;;;;;;;6.52;100.00;99456.56;6032240;29;20045;-90
2022/04/05 08:03:48;;;;;;;6.35;2.13;;;;;;;6.46;100.00;99462.22;6028751;29;20422;-90
2022/04/05 08:06:50;;;;;;;7.43;2.63;;;;;;;6.52;100.00;99455.75;6024677;29;20052;-89
2022/04/05 08:09:52;;;;;;;7.07;2.75;;;;;;;6.55;100.00;99448.59;6023193;29;20053;-91
2022/04/05 08:12:54;;;;;;;8.00;1.88;;;;;;;6.62;100.00;99454.88;6031833;29;20053;-91
2022/04/05 08:15:56;;;;;;;6.00;1.80;;;;;;;6.88;100.00;99457.13;6013464;29;20640;-90
2022/04/05 08:18:58;;;;;;;6.93;2.00;;;;;;;7.07;100.00;99459.84;6026001;29;20053;-90
2022/04/05 08:22:00;;;;;;;6.78;1.95;;;;;;;6.95;100.00;99465.16;6036544;29;20052;-90
2022/04/05 08:25:03;;;;;;;3.78;1.60;;;;;;;6.75;100.00;99472.72;6024211;29;20043;-90
2022/04/05 08:28:05;;;;;;;9.02;2.08;;;;;;;6.63;100.00;99466.00;6022610;29;20561;-89
2022/04/05 08:31:07;;;;;;;6.05;1.70;;;;;;;6.63;100.00;99471.97;6030137;29;20049;-89
2022/04/05 08:34:09;;;;;;;5.85;1.70;;;;;;;6.73;100.00;99472.03;6034353;29;20483;-89
2022/04/05 08:37:12;;;;;;;8.57;1.73;;;;;;;6.66;100.00;99474.28;6034784;29;20041;-89
2022/04/05 08:40:17;;;;;;;8.73;1.80;;;;;;;6.63;100.00;99469.41;6026340;29;20385;-90
2022/04/05 08:43:19;;;;;;;7.18;1.90;;;;;;;6.55;100.00;99476.88;6034595;29;20104;-89
2022/04/05 08:46:25;;;;;;;4.85;1.52;;;;;;;6.45;100.00;99478.56;6036074;29;20045;-90
2022/04/05 08:49:28;;;;;;;7.80;1.67;;;;;;;6.38;100.00;99478.19;6032683;29;20053;-91
2022/04/05 08:52:30;;;;;;;9.20;1.70;;;;;;;6.28;100.00;99472.16;6032189;29;20041;-91
2022/04/05 08:55:35;;;;;;;9.15;1.92;;;;;;;6.39;100.00;99476.47;6041027;29;20108;-85
2022/04/05 08:58:38;;;;;;;7.03;1.75;;;;;;;6.79;100.00;99474.13;6047291;29;20076;-85
2022/04/05 09:01:41;;;;;;;6.47;1.73;;;;;;;7.15;100.00;99473.84;6040852;29;20047;-84
2022/04/05 09:04:45;;;;;;;4.10;1.50;;;;;;;7.05;100.00;99476.34;6033483;29;20419;-85
2022/04/05 09:07:47;;;;;;;8.57;2.05;;;;;;;6.81;100.00;99477.38;6032449;29;20061;-86
2022/04/05 09:10:53;;;;;;;7.53;1.60;;;;;;;6.62;100.00;99480.59;6035817;29;20048;-86
2022/04/05 09:14:04;;;;;;;9.50;1.98;;;;;;;6.47;100.00;99484.38;6037027;29;20503;-86
2022/04/05 09:17:09;;;;;;;3.75;1.48;;;;;;;6.49;100.00;99479.13;6030564;29;20041;-86
2022/04/05 09:20:12;;;;;;;11.45;2.40;;;;;;;6.53;100.00;99483.09;6040597;29;20037;-86
2022/04/05 09:23:29;;;;;;;7.20;1.63;;;;;;;6.47;100.00;99474.91;6041680;29;20056;-86
2022/04/05 09:26:42;;;;;;;5.90;1.63;;;;;;;6.59;100.00;99470.56;6041810;29;20165;-86
2022/04/05 09:29:50;;;;;;;6.13;1.63;;;;;;;6.96;100.00;99466.81;6028182;29;20044;-86
2022/04/05 09:32:53;;;;;;;8.40;1.75;;;;;;;7.12;100.00;99462.84;6030703;29;20053;-86
2022/04/05 09:36:31;;;;;;;7.57;2.00;;;;;;;6.89;100.00;99466.50;6045219;29;20495;-86
2022/04/05 09:39:33;;;;;;;4.65;1.95;;;;;;;6.85;100.00;99460.75;5985418;29;20060;-86
2022/04/05 09:42:35;;;;;;;4.45;2.00;;;;;;;6.95;100.00;99465.16;5984795;29;20516;-86
2022/04/05 09:45:53;;;;;;;7.65;2.03;;;;;;;6.91;100.00;99467.19;5984700;29;20061;-86
2022/04/05 09:49:13;;;;;;;5.32;1.95;;;;;;;7.00;100.00;99463.84;5995590;29;20250;-85
2022/04/05 09:52:30;;;;;;;8.52;2.60;;;;;;;6.99;100.00;99467.38;5989223;29;20165;-85
2022/04/05 09:55:33;;;;;;;5.78;2.35;;;;;;;7.25;100.00;99459.28;5980260;29;20062;-85
2022/04/05 09:58:43;;;;;;;7.00;2.50;;;;;;;7.65;100.00;99453.38;5987192;29;20114;-85
2022/04/05 10:01:46;;;;;;;5.65;3.03;;;;;;;7.98;100.00;99450.53;5990666;29;20416;-85
2022/04/05 10:05:08;;;;;;;7.50;2.55;;;;;;;8.12;100.00;99451.09;5993042;29;20058;-85
2022/04/05 10:08:12;;;;;;;8.07;2.55;;;;;;;8.30;100.00;99446.16;5993960;29;20061;-85
2022/04/05 10:11:17;;;;;;;7.45;2.45;;;;;;;8.55;100.00;99457.75;5994587;29;20615;-85
2022/04/05 10:14:20;;;;;;;7.38;2.67;;;;;;;8.72;100.00;99449.34;5991944;29;20082;-85
2022/04/05 10:17:31;;;;;;;8.65;2.47;;;;;;;8.74;100.00;99447.41;6031451;29;20505;-85
2022/04/05 10:20:34;;;;;;;7.38;2.60;;;;;;;8.79;100.00;99440.09;6028357;29;20141;-85
2022/04/05 10:23:41;;;;;;;6.43;2.38;;;;;;;8.75;100.00;99443.91;6032224;29;20517;-85
2022/04/05 10:26:47;;;;;;;10.23;2.90;;;;;;;8.63;100.00;99438.03;6031923;29;20056;-85
2022/04/05 10:30:21;;;;;;;4.97;2.83;;;;;;;8.79;100.00;99439.25;6030573;29;20784;-85
2022/04/05 10:34:17;;;;;;;7.45;2.97;;;;;;;8.81;100.00;99432.19;6030032;29;20707;-85
2022/04/05 10:37:29;;;;;;;7.15;2.47;;;;;;;8.68;100.00;99431.69;5990370;29;20567;-87
2022/04/05 10:40:31;;;;;;;4.25;2.10;;;;;;;8.60;100.00;99433.16;5987991;29;20050;-86
2022/04/05 10:43:33;;;;;;;2.85;2.00;;;;;;;8.59;100.00;99428.13;5987784;29;20476;-89
2022/04/05 10:46:50;;;;;;;2.95;1.60;;;;;;;8.75;100.00;99428.41;5990091;29;20053;-90
2022/04/05 10:50:20;;;;;;;3.25;1.80;;;;;;;9.19;100.00;99436.50;5992891;29;20073;-90
2022/04/05 10:57:32;;;;;;;2.97;1.40;;;;;;;9.13;100.00;99431.09;5991166;29;20126;-85
2022/04/05 11:00:34;;;;;;;3.15;1.63;;;;;;;9.12;100.00;99432.03;5988806;29;20057;-88
2022/04/05 11:03:36;;;;;;;4.57;2.20;;;;;;;9.30;100.00;99422.63;5988864;29;20054;-89
2022/04/05 11:07:05;;;;;;;3.10;2.80;;;;;;;9.25;100.00;99427.41;5992671;29;20205;-90
2022/04/05 11:10:08;;;;;;;4.57;2.88;;;;;;;8.87;100.00;99428.25;5997352;29;20055;-91
2022/04/05 11:13:18;;;;;;;7.30;2.80;;;;;;;9.00;100.00;99427.03;6032578;29;20052;-91
2022/04/05 11:16:24;;;;;;;3.47;2.70;;;;;;;9.36;100.00;99432.38;6032956;29;20403;-91
2022/04/05 11:19:27;;;;;;;4.95;2.53;;;;;;;9.59;100.00;99434.59;6026620;29;20722;-91
2022/04/05 11:22:38;;;;;;;3.10;2.40;;;;;;;9.86;100.00;99429.47;6013413;29;20049;-92
2022/04/05 11:25:42;;;;;;;3.70;2.60;;;;;;;9.45;100.00;99436.72;6028364;29;20064;-91
2022/04/05 11:28:45;;;;;;;3.78;2.40;;;;;;;9.22;100.00;99430.25;6038146;29;20057;-91
2022/04/05 11:32:07;;;;;;;3.95;2.15;;;;;;;9.28;100.00;99420.16;6032462;29;20136;-91
2022/04/05 11:35:26;;;;;;;4.13;1.97;;;;;;;9.17;100.00;99420.34;6032341;29;20049;-91
2022/04/05 11:38:28;;;;;;;3.72;1.85;;;;;;;9.54;100.00;99436.81;6034533;29;20344;-90
2022/04/05 11:41:31;;;;;;;1.80;1.55;;;;;;;9.46;100.00;99422.00;6032205;29;20048;-91
2022/04/05 11:44:34;;;;;;;4.18;1.42;;;;;;;9.18;100.00;99419.38;6026188;29;20052;-91
2022/04/05 11:47:36;;;;;;;1.67;1.30;;;;;;;9.21;100.00;99411.34;6032502;29;20068;-85
2022/04/05 11:50:38;;;;;;;2.75;1.20;;;;;;;9.15;100.00;99411.13;6018536;29;20104;-85
2022/04/05 11:53:41;;;;;;;2.03;1.17;;;;;;;9.19;100.00;99413.28;6031860;29;20767;-86
2022/04/05 11:56:43;;;;;;;1.83;1.65;;;;;;;8.96;100.00;99414.53;6034555;29;20351;-87
2022/04/05 11:59:45;;;;;;;1.75;1.58;;;;;;;8.84;100.00;99406.97;6033185;29;20045;-87
2022/04/05 12:03:05;;;;;;;2.15;1.60;;;;;;;8.55;100.00;99408.75;6034749;29;22076;-86
2022/04/05 12:06:08;;;;;;;1.83;1.73;;;;;;;8.29;100.00;99411.78;6032599;29;20494;-86
2022/04/05 12:09:13;;;;;;;3.10;2.10;;;;;;;8.12;100.00;99405.56;6036577;29;20147;-87
2022/04/05 12:12:15;;;;;;;2.70;2.35;;;;;;;8.18;100.00;99399.84;6020801;29;20041;-86
2022/04/05 12:15:16;;;;;;;2.30;2.10;;;;;;;8.31;100.00;99402.16;6037595;29;20511;-86
2022/04/05 12:18:31;;;;;;;3.17;2.35;;;;;;;8.30;100.00;99410.06;6033489;29;20049;-86
2022/04/05 12:21:33;;;;;;;3.70;2.50;;;;;;;8.31;100.00;99411.66;6031748;29;20068;-85
2022/04/05 12:24:57;;;;;;;3.97;2.55;;;;;;;8.22;100.00;99405.53;6027811;29;20197;-85
2022/04/05 12:27:58;;;;;;;4.38;2.65;;;;;;;8.39;100.00;99392.00;6029851;29;20120;-85
2022/04/05 12:31:09;;;;;;;5.57;3.17;;;;;;;8.48;100.00;99400.72;6028749;29;20050;-85
2022/04/05 12:34:13;;;;;;;4.35;3.00;;;;;;;8.65;100.00;99401.81;6032314;29;20907;-85
2022/04/05 12:37:16;;;;;;;3.25;2.85;;;;;;;8.62;100.00;99402.91;6034196;29;20835;-85
2022/04/05 12:40:25;;;;;;;4.78;2.97;;;;;;;8.62;100.00;99407.22;6024876;29;20124;-86
2022/04/05 12:43:27;;;;;;;5.82;3.38;;;;;;;8.71;100.00;99396.09;6031367;29;20041;-86
2022/04/05 12:46:42;;;;;;;4.88;3.20;;;;;;;8.81;100.00;99393.50;6033910;29;20053;-86
2022/04/05 12:49:47;;;;;;;4.30;3.22;;;;;;;8.96;100.00;99384.38;6032799;29;20517;-86
2022/04/05 12:52:59;;;;;;;3.40;2.95;;;;;;;9.13;100.00;99384.63;6029378;29;20060;-86
2022/04/05 12:56:08;;;;;;;5.70;3.17;;;;;;;9.07;100.00;99380.84;6029706;29;20399;-86
2022/04/05 12:59:10;;;;;;;4.10;3.25;;;;;;;9.09;100.00;99367.78;6034203;29;20404;-87
2022/04/05 13:02:25;;;;;;;3.90;3.15;;;;;;;8.90;100.00;99358.31;6024583;29;20056;-88
2022/04/05 13:08:50;;;;;;;5.78;3.53;;;;;;;8.94;100.00;99365.63;6031734;29;20049;-88
2022/04/05 13:12:13;;;;;;;3.13;2.83;;;;;;;8.79;100.00;99359.28;6029489;29;20582;-88
2022/04/05 13:15:20;;;;;;;3.65;2.88;;;;;;;8.67;100.00;99357.78;6027335;29;20049;-89
2022/04/05 13:18:34;;;;;;;3.65;2.92;;;;;;;8.65;100.00;99355.38;6033391;29;20139;-89
2022/04/05 13:21:50;;;;;;;6.22;2.90;;;;;;;8.53;100.00;99361.63;6040213;29;20068;-88
2022/04/05 13:24:57;;;;;;;3.78;3.25;;;;;;;8.46;100.00;99358.78;6041882;29;20064;-88
2022/04/05 13:28:00;;;;;;;5.68;2.90;;;;;;;8.45;100.00;99354.56;6036665;29;20389;-88
2022/04/05 13:31:14;;;;;;;2.90;2.10;;;;;;;8.51;100.00;99348.84;6032923;29;20041;-88
2022/04/05 13:34:19;;;;;;;2.40;1.90;;;;;;;8.52;100.00;99354.81;6031573;29;20049;-88
2022/04/05 13:37:24;;;;;;;2.35;1.88;;;;;;;8.38;100.00;99353.47;6041331;29;20049;-88
2022/04/05 13:40:26;;;;;;;2.55;2.10;;;;;;;8.66;100.00;99348.44;6033739;29;20044;-88
2022/04/05 13:43:28;;;;;;;2.50;2.20;;;;;;;9.07;100.00;99349.84;6034014;29;20049;-87
2022/04/05 13:46:34;;;;;;;4.90;2.45;;;;;;;9.42;100.00;99348.38;6036378;29;20295;-87
2022/04/05 13:49:37;;;;;;;3.70;3.38;;;;;;;9.62;100.00;99347.31;6028375;29;20049;-87
2022/04/05 13:52:39;;;;;;;4.03;3.00;;;;;;;9.80;100.00;99347.34;6037099;29;20049;-86
2022/04/05 13:55:41;;;;;;;3.25;2.95;;;;;;;9.87;100.00;99343.22;6040942;29;20043;-87
2022/04/05 13:58:43;;;;;;;3.60;2.90;;;;;;;9.70;100.00;99342.22;6036141;29;20141;-87
2022/04/05 14:01:45;;;;;;;6.78;3.15;;;;;;;9.73;100.00;99333.38;6037770;29;20077;-86
2022/04/05 14:04:47;;;;;;;4.47;3.33;;;;;;;9.62;100.00;99329.22;6034701;29;20056;-87
2022/04/05 14:07:49;;;;;;;5.28;2.97;;;;;;;9.60;100.00;99328.56;6045974;29;20107;-86
2022/04/05 14:10:51;;;;;;;4.72;3.53;;;;;;;9.63;100.00;99314.53;6027878;29;20133;-86
2022/04/05 14:14:12;;;;;;;3.47;3.00;;;;;;;9.50;100.00;99314.88;6045549;29;20379;-85
2022/04/05 14:17:14;;;;;;;6.18;4.10;;;;;;;9.41;100.00;99313.97;6031501;29;20499;-85
2022/04/05 14:20:16;;;;;;;3.53;3.08;;;;;;;9.38;100.00;99305.69;6040989;29;20052;-85
2022/04/05 14:23:18;;;;;;;6.10;3.90;;;;;;;9.33;100.00;99313.88;6041745;29;20037;-85
2022/04/05 14:26:20;;;;;;;4.25;3.47;;;;;;;9.15;100.00;99308.66;6030784;29;20041;-85
2022/04/05 14:48:36;;;;;;;5.80;3.78;;;;;;;8.87;100.00;99288.91;6022267;29;20052;-90
2022/04/05 14:51:38;;;;;;;6.10;4.10;;;;;;;8.84;100.00;99283.09;6024955;29;20124;-89
2022/04/05 14:54:40;;;;;;;5.85;4.22;;;;;;;8.88;100.00;99296.53;6029342;29;20041;-91
2022/04/05 14:57:42;;;;;;;5.55;4.07;;;;;;;8.81;100.00;99288.50;6038684;23;20678;-87